createdAt,value
2018-03-03T00:01:10.417Z,86.59
2018-03-03T00:03:37.982Z,86.45
2018-03-03T00:06:05.439Z,86.25
2018-03-03T00:08:33.845Z,86.22
2018-03-03T00:11:01.317Z,86.07
2018-03-03T00:13:28.808Z,85.84
2018-03-03T00:15:56.267Z,86.00
2018-03-03T00:18:23.754Z,85.81
2018-03-03T00:20:51.215Z,85.81
2018-03-03T00:23:18.696Z,85.76
2018-03-03T00:25:46.155Z,85.64
2018-03-03T00:28:13.644Z,85.53
2018-03-03T00:30:41.107Z,85.82
2018-03-03T00:33:08.583Z,86.50
2018-03-03T00:35:36.043Z,86.12
2018-03-03T00:38:03.521Z,86.20
2018-03-03T00:40:30.989Z,86.34
2018-03-03T00:42:59.216Z,86.60
2018-03-03T00:45:26.895Z,86.62
2018-03-03T00:47:55.450Z,86.43
2018-03-03T00:50:22.950Z,86.41
2018-03-03T00:52:50.834Z,86.40
2018-03-03T00:55:18.357Z,86.44
2018-03-03T00:57:45.968Z,86.63
2018-03-03T01:00:13.467Z,86.78
2018-03-03T01:02:41.287Z,86.65
2018-03-03T01:05:08.818Z,86.73
2018-03-03T01:07:36.395Z,87.07
2018-03-03T01:12:49.488Z,87.05
2018-03-03T01:15:17.076Z,87.00
2018-03-03T01:17:44.553Z,86.82
2018-03-03T01:20:12.499Z,86.46
2018-03-03T01:22:40.821Z,86.28
2018-03-03T01:25:08.304Z,86.35
2018-03-03T01:27:36.687Z,86.43
2018-03-03T01:30:05.140Z,86.19
2018-03-03T01:32:32.618Z,85.86
2018-03-03T01:35:00.872Z,86.03
2018-03-03T01:37:28.420Z,85.96
2018-03-03T01:39:55.976Z,85.57
2018-03-03T01:42:23.899Z,85.59
2018-03-03T01:44:51.787Z,85.47
2018-03-03T01:47:20.207Z,85.70
2018-03-03T01:49:47.693Z,85.69
2018-03-03T01:52:15.270Z,85.40
2018-03-03T01:54:42.829Z,85.21
2018-03-03T01:57:10.332Z,85.42
2018-03-03T01:59:37.901Z,85.46
2018-03-03T02:02:05.430Z,85.36
2018-03-03T02:04:33.721Z,85.24
2018-03-03T02:07:01.203Z,85.13
2018-03-03T02:09:29.783Z,85.14
2018-03-03T02:11:58.737Z,84.89
2018-03-03T02:14:33.129Z,84.92
2018-03-03T02:17:01.054Z,85.01
2018-03-03T02:19:28.696Z,84.95
2018-03-03T02:21:57.151Z,85.08
2018-03-03T02:27:23.942Z,85.13
2018-03-03T02:29:55.423Z,84.97
2018-03-03T02:32:26.514Z,85.02
2018-03-03T02:34:54.014Z,84.90
2018-03-03T02:37:21.506Z,84.95
2018-03-03T02:39:49.009Z,85.43
2018-03-03T02:42:16.484Z,85.52
2018-03-03T02:44:43.968Z,85.43
2018-03-03T02:47:11.449Z,85.34
2018-03-03T02:49:38.944Z,85.47
2018-03-03T02:52:06.410Z,85.04
2018-03-03T02:54:33.891Z,84.83
2018-03-03T02:57:01.353Z,84.96
2018-03-03T02:59:28.864Z,85.01
2018-03-03T03:01:56.330Z,84.87
2018-03-03T03:04:23.799Z,84.77
2018-03-03T03:06:51.294Z,85.00
2018-03-03T03:09:18.754Z,85.07
2018-03-03T03:11:46.248Z,85.27
2018-03-03T03:14:13.742Z,85.05
2018-03-03T03:16:41.228Z,85.03
2018-03-03T03:19:08.811Z,85.03
2018-03-03T03:21:36.298Z,84.83
2018-03-03T03:24:03.767Z,84.99
2018-03-03T03:26:31.253Z,84.98
2018-03-03T03:28:58.712Z,85.03
2018-03-03T03:31:26.199Z,85.17
2018-03-03T03:33:53.667Z,84.95
2018-03-03T03:36:21.155Z,84.97
2018-03-03T03:38:48.611Z,85.10
2018-03-03T03:41:16.092Z,85.11
2018-03-03T03:43:43.558Z,85.06
2018-03-03T03:46:11.039Z,85.14
2018-03-03T03:48:38.515Z,85.15
2018-03-03T03:51:05.990Z,85.05
2018-03-03T03:53:33.465Z,85.08
2018-03-03T03:56:00.951Z,85.04
2018-03-03T03:58:30.403Z,85.17
2018-03-03T04:00:57.906Z,85.14
2018-03-03T04:03:25.372Z,85.09
2018-03-03T04:05:52.851Z,85.26
2018-03-03T04:08:20.307Z,85.22
2018-03-03T04:10:47.792Z,85.16
2018-03-03T04:13:15.250Z,85.29
2018-03-03T04:15:42.740Z,85.17
2018-03-03T04:18:10.211Z,85.03
2018-03-03T04:20:37.866Z,84.91
2018-03-03T04:23:05.356Z,84.74
2018-03-03T04:25:32.844Z,84.87
2018-03-03T04:28:00.325Z,84.81
2018-03-03T04:30:27.823Z,84.68
2018-03-03T04:32:55.292Z,84.83
2018-03-03T04:35:22.759Z,84.83
2018-03-03T04:37:50.271Z,84.69
2018-03-03T04:40:17.739Z,84.86
2018-03-03T04:42:45.223Z,84.83
2018-03-03T04:45:12.690Z,84.74
2018-03-03T04:47:40.172Z,84.72
2018-03-03T04:50:07.832Z,84.63
2018-03-03T04:52:35.331Z,84.60
2018-03-03T04:55:02.811Z,84.70
2018-03-03T04:57:30.298Z,84.87
2018-03-03T05:03:08.115Z,85.03
2018-03-03T05:05:41.399Z,84.80
2018-03-03T05:08:27.730Z,84.75
2018-03-03T05:10:58.672Z,84.51
2018-03-03T05:13:31.839Z,84.43
2018-03-03T05:16:06.983Z,84.60
2018-03-03T05:21:41.040Z,84.44
2018-03-03T05:27:14.236Z,84.37
2018-03-03T05:29:47.352Z,84.16
2018-03-03T05:32:20.430Z,84.04
2018-03-03T05:34:53.520Z,84.33
2018-03-03T05:37:33.842Z,84.19
2018-03-03T05:43:20.115Z,84.23
2018-03-03T05:48:53.263Z,84.34
2018-03-03T05:54:40.599Z,84.68
2018-03-03T05:57:13.730Z,84.63
2018-03-03T06:02:56.744Z,84.90
2018-03-03T06:05:29.702Z,85.12
2018-03-03T06:08:02.868Z,85.19
2018-03-03T06:10:32.910Z,84.95
2018-03-03T06:13:00.367Z,84.63
2018-03-03T06:15:27.852Z,84.67
2018-03-03T06:17:55.315Z,84.54
2018-03-03T06:20:22.805Z,84.59
2018-03-03T06:22:50.271Z,84.68
2018-03-03T06:25:17.755Z,85.00
2018-03-03T06:27:45.210Z,84.85
2018-03-03T06:30:12.698Z,84.49
2018-03-03T06:32:40.186Z,84.58
2018-03-03T06:35:07.679Z,84.50
2018-03-03T06:37:35.151Z,84.32
2018-03-03T06:40:02.657Z,84.13
2018-03-03T06:42:30.137Z,84.42
2018-03-03T06:44:57.631Z,84.46
2018-03-03T06:47:25.095Z,84.08
2018-03-03T06:49:52.582Z,83.71
2018-03-03T06:52:20.045Z,83.62
2018-03-03T06:54:47.537Z,83.66
2018-03-03T06:57:15.008Z,83.51
2018-03-03T06:59:42.511Z,83.17
2018-03-03T07:02:09.970Z,82.93
2018-03-03T07:04:37.475Z,82.56
2018-03-03T07:07:04.938Z,82.71
2018-03-03T07:09:32.431Z,82.55
2018-03-03T07:11:59.891Z,82.30
2018-03-03T07:14:42.996Z,82.18
2018-03-03T07:17:10.476Z,81.93
2018-03-03T07:19:37.979Z,81.98
2018-03-03T07:22:05.444Z,81.59
2018-03-03T07:24:33.855Z,80.74
2018-03-03T07:27:01.378Z,80.64
2018-03-03T07:29:28.863Z,80.25
2018-03-03T07:31:56.324Z,79.63
2018-03-03T07:34:23.807Z,79.48
2018-03-03T07:36:51.271Z,79.27
2018-03-03T07:39:18.755Z,78.88
2018-03-03T07:41:46.216Z,78.97
2018-03-03T07:44:13.692Z,78.60
2018-03-03T07:46:41.179Z,79.52
2018-03-03T07:49:08.852Z,78.36
2018-03-03T07:51:36.332Z,77.58
2018-03-03T07:54:03.812Z,76.56
2018-03-03T07:56:43.113Z,76.54
2018-03-03T07:59:10.585Z,76.92
2018-03-03T08:01:38.067Z,76.16
2018-03-03T08:04:06.237Z,75.05
2018-03-03T08:06:33.733Z,75.03
2018-03-03T08:09:01.204Z,75.36
2018-03-03T08:11:28.691Z,74.41
2018-03-03T08:13:56.163Z,75.02
2018-03-03T08:16:23.652Z,74.38
2018-03-03T08:18:51.115Z,74.51
2018-03-03T08:21:18.842Z,74.12
2018-03-03T08:23:46.319Z,74.63
2018-03-03T08:26:13.831Z,74.53
2018-03-03T08:28:41.309Z,77.23
2018-03-03T08:31:08.875Z,78.97
2018-03-03T08:33:36.347Z,78.32
2018-03-03T08:36:03.851Z,76.71
2018-03-03T08:38:31.316Z,75.85
2018-03-03T08:40:58.794Z,75.33
2018-03-03T08:43:26.255Z,74.54
2018-03-03T08:45:53.750Z,73.05
2018-03-03T08:48:21.216Z,73.36
2018-03-03T08:50:48.698Z,73.06
2018-03-03T08:53:16.159Z,76.01
2018-03-03T08:55:44.306Z,75.06
2018-03-03T08:58:11.786Z,74.10
2018-03-03T09:00:39.292Z,73.67
2018-03-03T09:03:06.762Z,72.74
2018-03-03T09:05:34.244Z,73.08
2018-03-03T09:08:01.710Z,71.99
2018-03-03T09:10:29.208Z,70.76
2018-03-03T09:12:56.677Z,69.96
2018-03-03T09:15:24.149Z,69.49
2018-03-03T09:17:51.636Z,70.41
2018-03-03T09:20:19.127Z,69.59
2018-03-03T09:22:46.615Z,69.79
2018-03-03T09:25:14.077Z,70.15
2018-03-03T09:27:41.597Z,70.40
2018-03-03T09:30:09.963Z,70.74
2018-03-03T09:32:37.452Z,70.60
2018-03-03T09:35:04.920Z,70.81
2018-03-03T09:37:32.414Z,70.53
2018-03-03T09:39:59.875Z,71.21
2018-03-03T09:42:27.359Z,71.39
2018-03-03T09:44:54.829Z,71.08
2018-03-03T09:47:22.320Z,71.44
2018-03-03T09:49:49.797Z,72.46
2018-03-03T09:52:17.299Z,73.00
2018-03-03T09:54:44.769Z,72.22
2018-03-03T09:57:12.259Z,72.89
2018-03-03T09:59:39.723Z,72.93
2018-03-03T10:02:07.207Z,72.94
2018-03-03T10:04:34.663Z,72.69
2018-03-03T10:07:02.155Z,73.13
2018-03-03T10:09:29.621Z,73.85
2018-03-03T10:11:57.120Z,73.66
2018-03-03T10:14:24.584Z,73.06
2018-03-03T10:16:52.063Z,73.11
2018-03-03T10:19:19.537Z,72.79
2018-03-03T10:21:47.014Z,72.69
2018-03-03T10:24:14.481Z,72.22
2018-03-03T10:26:41.963Z,71.97
2018-03-03T10:29:09.423Z,71.65
2018-03-03T10:31:36.915Z,72.54
2018-03-03T10:34:04.379Z,71.96
2018-03-03T10:36:31.869Z,71.51
2018-03-03T10:38:59.333Z,71.66
2018-03-03T10:41:26.804Z,70.99
2018-03-03T10:43:54.321Z,71.71
2018-03-03T10:46:21.785Z,71.38
2018-03-03T10:48:49.259Z,71.00
2018-03-03T10:51:16.732Z,71.46
2018-03-03T10:53:45.052Z,69.98
2018-03-03T10:56:12.515Z,69.65
2018-03-03T10:58:40.005Z,69.42
2018-03-03T11:01:07.480Z,69.32
2018-03-03T11:03:34.975Z,69.68
2018-03-03T11:06:02.447Z,69.22
2018-03-03T11:08:29.932Z,68.33
2018-03-03T11:10:57.399Z,67.78
2018-03-03T11:13:25.527Z,67.61
2018-03-03T11:15:53.001Z,66.85
2018-03-03T11:18:20.495Z,66.36
2018-03-03T11:20:47.990Z,65.94
2018-03-03T11:23:15.485Z,66.42
2018-03-03T11:25:42.962Z,66.05
2018-03-03T11:28:10.453Z,66.06
2018-03-03T11:30:37.919Z,65.04
2018-03-03T11:33:05.433Z,65.46
2018-03-03T11:35:32.894Z,65.73
2018-03-03T11:38:00.396Z,64.55
2018-03-03T11:40:33.134Z,64.26
2018-03-03T11:42:55.367Z,65.25
2018-03-03T11:45:22.834Z,63.87
2018-03-03T11:47:50.323Z,64.01
2018-03-03T11:50:17.787Z,63.77
2018-03-03T11:52:45.277Z,64.14
2018-03-03T11:55:12.739Z,63.41
2018-03-03T11:57:40.224Z,63.22
2018-03-03T12:00:07.798Z,64.08
2018-03-03T12:02:35.298Z,63.63
2018-03-03T12:05:02.783Z,63.51
2018-03-03T12:07:30.243Z,62.44
2018-03-03T12:09:57.739Z,62.88
2018-03-03T12:12:25.206Z,62.73
2018-03-03T12:14:52.686Z,62.85
2018-03-03T12:17:20.188Z,62.67
2018-03-03T12:19:47.679Z,63.37
2018-03-03T12:22:15.179Z,63.18
2018-03-03T12:24:42.640Z,64.00
2018-03-03T12:27:10.099Z,64.42
2018-03-03T12:29:37.583Z,62.57
2018-03-03T12:32:05.046Z,63.03
2018-03-03T12:34:32.535Z,62.63
2018-03-03T12:36:59.996Z,62.47
2018-03-03T12:39:27.483Z,62.63
2018-03-03T12:41:54.966Z,62.85
2018-03-03T12:44:22.454Z,62.93
2018-03-03T12:46:49.918Z,63.06
2018-03-03T12:49:17.407Z,62.06
2018-03-03T12:51:44.875Z,61.79
2018-03-03T12:54:12.360Z,62.76
2018-03-03T12:56:39.846Z,62.48
2018-03-03T12:59:07.449Z,61.98
2018-03-03T13:01:34.923Z,61.04
2018-03-03T13:04:02.919Z,61.63
2018-03-03T13:06:30.383Z,61.24
2018-03-03T13:08:57.871Z,62.18
2018-03-03T13:11:25.336Z,61.31
2018-03-03T13:13:52.825Z,61.18
2018-03-03T13:16:20.287Z,61.86
2018-03-03T13:18:47.767Z,60.03
2018-03-03T13:21:15.226Z,60.82
2018-03-03T13:23:42.725Z,60.92
2018-03-03T13:26:10.195Z,60.30
2018-03-03T13:28:37.663Z,63.73
2018-03-03T13:31:05.159Z,63.40
2018-03-03T13:33:32.616Z,61.35
2018-03-03T13:36:00.095Z,62.98
2018-03-03T13:38:27.566Z,62.14
2018-03-03T13:40:55.107Z,61.35
2018-03-03T13:43:22.567Z,60.58
2018-03-03T13:45:50.065Z,59.50
2018-03-03T13:48:17.527Z,59.23
2018-03-03T13:50:45.010Z,60.29
2018-03-03T13:53:12.479Z,60.70
2018-03-03T13:55:39.988Z,62.32
2018-03-03T13:58:07.456Z,64.03
2018-03-03T14:00:34.936Z,63.19
2018-03-03T14:03:02.395Z,64.85
2018-03-03T14:05:29.873Z,61.37
2018-03-03T14:07:57.772Z,60.42
2018-03-03T14:10:25.260Z,60.58
2018-03-03T14:12:52.731Z,56.95
2018-03-03T14:15:20.212Z,55.97
2018-03-03T14:17:47.678Z,55.69
2018-03-03T14:20:15.168Z,55.65
2018-03-03T14:22:42.627Z,57.21
2018-03-03T14:25:10.103Z,58.06
2018-03-03T14:27:37.568Z,55.66
2018-03-03T14:30:05.047Z,54.97
2018-03-03T14:32:32.515Z,53.73
2018-03-03T14:35:00.012Z,51.89
2018-03-03T14:37:27.685Z,53.68
2018-03-03T14:39:55.172Z,54.64
2018-03-03T14:42:22.643Z,54.14
2018-03-03T14:44:50.126Z,51.02
2018-03-03T14:47:17.592Z,49.51
2018-03-03T14:49:45.062Z,52.17
2018-03-03T14:52:12.536Z,52.57
2018-03-03T14:54:39.995Z,51.79
2018-03-03T14:57:07.480Z,52.23
2018-03-03T14:59:35.035Z,51.70
2018-03-03T15:02:02.518Z,50.19
2018-03-03T15:04:31.010Z,50.06
2018-03-03T15:06:58.496Z,52.09
2018-03-03T15:09:26.040Z,53.75
2018-03-03T15:11:53.524Z,51.67
2018-03-03T15:14:20.992Z,51.38
2018-03-03T15:16:48.506Z,50.20
2018-03-03T15:19:15.977Z,49.11
2018-03-03T15:21:43.462Z,49.06
2018-03-03T15:24:10.951Z,48.54
2018-03-03T15:26:38.466Z,49.53
2018-03-03T15:29:05.947Z,49.88
2018-03-03T15:31:33.427Z,50.35
2018-03-03T15:34:00.903Z,49.70
2018-03-03T15:36:28.394Z,48.55
2018-03-03T15:38:55.860Z,48.63
2018-03-03T15:41:23.358Z,49.77
2018-03-03T15:43:50.831Z,49.78
2018-03-03T15:46:18.318Z,49.91
2018-03-03T15:48:45.794Z,50.69
2018-03-03T15:51:13.283Z,50.65
2018-03-03T15:53:40.763Z,51.09
2018-03-03T15:56:08.247Z,52.91
2018-03-03T15:58:35.703Z,52.58
2018-03-03T16:01:03.189Z,53.55
2018-03-03T16:03:30.652Z,55.67
2018-03-03T16:05:58.134Z,56.32
2018-03-03T16:08:25.605Z,57.53
2018-03-03T16:10:53.082Z,57.30
2018-03-03T16:13:20.545Z,57.34
2018-03-03T16:15:48.003Z,58.16
2018-03-03T16:18:15.486Z,59.48
2018-03-03T16:20:42.958Z,58.94
2018-03-03T16:23:10.439Z,59.88
2018-03-03T16:25:38.359Z,62.24
2018-03-03T16:28:05.852Z,64.67
2018-03-03T16:30:33.315Z,66.56
2018-03-03T16:33:00.796Z,68.10
2018-03-03T16:35:28.264Z,69.99
2018-03-03T16:37:55.745Z,70.95
2018-03-03T16:40:23.215Z,71.78
2018-03-03T16:42:50.695Z,72.86
2018-03-03T16:45:18.157Z,74.16
2018-03-03T16:47:45.636Z,75.35
2018-03-03T16:50:14.345Z,76.53
2018-03-03T16:52:41.893Z,77.07
2018-03-03T16:55:09.415Z,78.14
2018-03-03T16:57:36.904Z,79.29
2018-03-03T17:00:04.383Z,79.32
2018-03-03T17:02:31.873Z,79.80
2018-03-03T17:04:59.340Z,80.20
2018-03-03T17:07:26.891Z,80.67
2018-03-03T17:09:54.353Z,80.90
2018-03-03T17:12:21.841Z,81.17
2018-03-03T17:14:49.299Z,81.71
2018-03-03T17:17:16.774Z,81.81
2018-03-03T17:19:44.250Z,82.07
2018-03-03T17:22:12.042Z,82.27
2018-03-03T17:24:39.490Z,82.77
2018-03-03T17:27:06.975Z,83.39
2018-03-03T17:29:52.757Z,83.67
2018-03-03T17:32:20.367Z,83.89
2018-03-03T17:34:47.826Z,84.31
2018-03-03T17:37:15.307Z,84.35
2018-03-03T17:39:42.768Z,84.36
2018-03-03T17:42:13.964Z,84.58
2018-03-03T17:44:41.518Z,84.72
2018-03-03T17:47:09.003Z,84.81
2018-03-03T17:49:36.488Z,84.85
2018-03-03T17:52:03.948Z,84.99
2018-03-03T17:54:31.441Z,84.83
2018-03-03T17:56:58.895Z,85.02
2018-03-03T17:59:26.370Z,85.16
2018-03-03T18:01:53.836Z,85.33
2018-03-03T18:04:21.319Z,85.42
2018-03-03T18:06:48.772Z,85.47
2018-03-03T18:09:16.251Z,85.68
2018-03-03T18:11:55.468Z,85.93
2018-03-03T18:14:22.951Z,86.26
2018-03-03T18:16:50.411Z,86.29
2018-03-03T18:19:17.895Z,86.30
2018-03-03T18:21:45.361Z,86.35
2018-03-03T18:24:24.495Z,86.32
2018-03-03T18:26:51.979Z,86.14
2018-03-03T18:29:19.466Z,85.88
2018-03-03T18:31:46.938Z,85.75
2018-03-03T18:34:14.454Z,85.75
2018-03-03T18:36:41.906Z,85.86
2018-03-03T18:39:09.395Z,86.06
2018-03-03T18:41:36.863Z,86.31
2018-03-03T18:44:04.359Z,86.54
2018-03-03T18:46:31.823Z,86.64
2018-03-03T18:48:59.306Z,86.69
2018-03-03T18:51:26.779Z,86.85
2018-03-03T18:53:54.272Z,86.98
2018-03-03T18:56:21.735Z,86.99
2018-03-03T18:58:49.228Z,86.99
2018-03-03T19:01:16.789Z,86.91
2018-03-03T19:03:44.275Z,86.89
2018-03-03T19:06:11.744Z,87.02
2018-03-03T19:08:39.259Z,86.96
2018-03-03T19:11:07.095Z,87.06
2018-03-03T19:13:34.658Z,87.05
2018-03-03T19:16:02.362Z,87.05
2018-03-03T19:18:29.888Z,87.08
2018-03-03T19:20:57.379Z,87.29
2018-03-03T19:23:25.287Z,87.28
2018-03-03T19:25:52.872Z,87.32
2018-03-03T19:28:20.684Z,87.33
2018-03-03T19:30:49.739Z,87.25
2018-03-03T19:33:17.213Z,87.32
2018-03-03T19:35:44.788Z,87.21
2018-03-03T19:38:12.267Z,87.22
2018-03-03T19:40:39.800Z,87.14
2018-03-03T19:43:08.216Z,87.02
2018-03-03T19:45:35.787Z,86.78
2018-03-03T19:48:03.335Z,86.70
2018-03-03T19:50:30.891Z,86.34
2018-03-03T19:52:58.772Z,86.35
2018-03-03T19:55:26.668Z,86.33
2018-03-03T19:57:54.421Z,86.27
2018-03-03T20:00:22.339Z,86.39
2018-03-03T20:02:49.803Z,86.31
2018-03-03T20:05:17.581Z,86.28
2018-03-03T20:07:45.075Z,86.30
2018-03-03T20:10:12.580Z,86.15
2018-03-03T20:12:40.039Z,86.10
2018-03-03T20:15:07.900Z,86.01
2018-03-03T20:17:35.387Z,86.02
2018-03-03T20:20:02.874Z,85.99
2018-03-03T20:22:30.347Z,86.10
2018-03-03T20:24:58.300Z,86.11
2018-03-03T20:27:26.182Z,86.05
2018-03-03T20:29:54.620Z,85.95
2018-03-03T20:32:22.094Z,85.83
2018-03-03T20:34:49.570Z,85.52
2018-03-03T20:37:17.066Z,85.37
2018-03-03T20:39:44.941Z,85.12
2018-03-03T20:42:13.735Z,84.76
2018-03-03T20:44:41.252Z,84.87
2018-03-03T20:47:08.712Z,84.50
2018-03-03T20:49:36.423Z,84.37
2018-03-03T20:52:04.208Z,84.22
2018-03-03T20:54:31.985Z,84.40
2018-03-03T20:56:59.566Z,84.50
2018-03-03T20:59:27.452Z,84.71
2018-03-03T21:01:55.235Z,84.65
2018-03-03T21:04:22.830Z,84.85
2018-03-03T21:06:50.707Z,84.91
2018-03-03T21:09:18.171Z,84.85
2018-03-03T21:11:59.596Z,84.81
2018-03-03T21:14:27.098Z,84.80
2018-03-03T21:16:54.585Z,85.03
2018-03-03T21:19:22.394Z,85.12
2018-03-03T21:21:50.260Z,84.94
2018-03-03T21:24:17.723Z,84.92
2018-03-03T21:26:45.202Z,84.89
2018-03-03T21:29:13.009Z,84.70
2018-03-03T21:31:40.496Z,84.70
2018-03-03T21:34:08.021Z,84.69
2018-03-03T21:36:35.550Z,84.72
2018-03-03T21:39:03.835Z,84.80
2018-03-03T21:41:31.650Z,84.96
2018-03-03T21:43:59.597Z,85.01
2018-03-03T21:46:27.151Z,84.89
2018-03-03T21:48:55.112Z,85.02
2018-03-03T21:51:22.606Z,85.06
2018-03-03T21:53:50.317Z,85.06
2018-03-03T21:56:17.829Z,84.96
2018-03-03T21:58:45.714Z,84.87
2018-03-03T22:01:13.195Z,84.68
2018-03-03T22:03:41.035Z,84.43
2018-03-03T22:06:08.692Z,84.21
2018-03-03T22:08:36.499Z,84.05
2018-03-03T22:11:04.406Z,83.96
2018-03-03T22:13:31.936Z,83.92
2018-03-03T22:16:00.227Z,83.85
2018-03-03T22:18:27.692Z,83.88
2018-03-03T22:20:56.267Z,83.94
2018-03-03T22:23:23.763Z,83.93
2018-03-03T22:25:51.296Z,83.81
2018-03-03T22:28:18.793Z,83.86
2018-03-03T22:30:46.520Z,83.90
2018-03-03T22:33:14.059Z,84.09
2018-03-03T22:35:41.749Z,84.40
2018-03-03T22:38:09.253Z,84.52
2018-03-03T22:40:36.720Z,84.63
2018-03-03T22:43:04.916Z,84.71
2018-03-03T22:45:32.431Z,85.10
2018-03-03T22:48:00.288Z,85.21
2018-03-03T22:50:27.743Z,85.21
2018-03-03T22:52:55.507Z,85.41
2018-03-03T22:55:22.971Z,85.52
2018-03-03T22:57:50.448Z,85.67
2018-03-03T23:00:17.963Z,85.85
2018-03-03T23:02:45.451Z,85.73
2018-03-03T23:05:13.788Z,85.63
2018-03-03T23:07:41.744Z,85.58
2018-03-03T23:10:09.264Z,85.74
2018-03-03T23:12:37.085Z,85.87
2018-03-03T23:15:04.983Z,85.99
2018-03-03T23:17:32.748Z,86.10
2018-03-03T23:20:00.271Z,85.87
2018-03-03T23:22:27.804Z,85.80
2018-03-03T23:24:55.777Z,85.95
2018-03-03T23:27:23.332Z,86.23
2018-03-03T23:29:51.271Z,86.30
2018-03-03T23:32:19.133Z,86.37
2018-03-03T23:34:46.936Z,86.65
2018-03-03T23:37:14.740Z,86.83
2018-03-03T23:39:42.211Z,86.86
2018-03-03T23:42:09.764Z,87.12
2018-03-03T23:44:37.759Z,87.43
2018-03-03T23:47:05.252Z,87.62
2018-03-03T23:49:33.115Z,87.72
2018-03-03T23:52:00.631Z,87.92
2018-03-03T23:54:28.942Z,88.18
2018-03-03T23:56:56.477Z,88.30
2018-03-03T23:59:28.336Z,88.40
